Current Weather

San Fernando

San Fernando, Argentina (SADF)

Report from: Saturday, February 24, 2024 6:00 PM UTC
Current time: Saturday, February 24, 2024 6:10 PM UTC

Nearby weather – Weather history – Daily summaries
Weather forecast

Temperature25.0°C (77.0°F)
Dew point18.0°C (64.4°F)
Winds 17 kts (8.7 m/s, 19.6 mph) Vrb
Winds variableWinds variable from East (90°) to South-Southeast (150°)
Visibility6.2 mi. (10 km)
Clouds Few clouds 3,300 ft. (1,006 m)
Altimeter30.18 in.Hg (1022 mB)
Relative humidity65 %
Density altitude1,146 ft. (349 m)
Flight conditions Visual Meteorological Conditions
Raw dataSADF 241800Z 12017KT 090V150 9999 FEW033 25/18 Q1022
An error has occurred. This application may no longer respond until reloaded. Reload 🗙